San Esteban, Argentina
Current Conditions -  °F | °C
As of 3:00 AM on Saturday 01 Nov 2014 (Local Time) from SACO Reporting Station
Moderate Rain Moderate Rain  
Wind Chill: 55°   Ceiling: 1500
Heat Index: 55°   Visibility: 2.5mi
Dew Point: 54°   Wind: 9mph
Humidity: 94%   Direction: 200°SSW
Pressure: 30.12"   Gusts: NA
Location:  30.92°S, 64.55°W
Report Text: SACO 010600Z 20008KT 4000 RA SCT007SCT012 BKN015 13/12 Q1020
Loading
Personal Weather Stations






























Interactive Weather Map
Tropical Storm Tracking
New forecast layout! Learn more

10-Day Weather Forecast

Advertisements
Track Severe Weather on mobile